Time;durP1;ratioP1;P1;durP2;ratioP2;P2;SDS_P1;SDS_P2;PMS_P1;PMS_P2;Temp;Humidity;BMP_temperature;BMP_pressure;BME280_temperature;BME280_humidity;BME280_pressure;Samples;Min_cycle;Max_cycle;Signal;HPM_P1;HPM_P2
2023/09/11 00:01:22;;;;;;;23.20;14.55;;;21.70;99.90;;;;;;5054383;28;20118;-79
2023/09/11 00:03:49;;;;;;;23.88;14.52;;;21.70;99.90;;;;;;5072221;28;20115;-80
2023/09/11 00:06:15;;;;;;;29.95;14.75;;;21.70;99.90;;;;;;5049842;28;20091;-79
2023/09/11 00:08:41;;;;;;;20.98;14.80;;;21.60;99.90;;;;;;5034405;28;20076;-79
2023/09/11 00:11:06;;;;;;;25.27;14.85;;;21.60;99.90;;;;;;5043355;28;20051;-79
2023/09/11 00:13:32;;;;;;;24.73;14.57;;;21.60;99.90;;;;;;5053754;28;20067;-79
2023/09/11 00:15:58;;;;;;;22.45;14.90;;;21.50;99.90;;;;;;5071972;28;20101;-79
2023/09/11 00:18:24;;;;;;;21.00;14.55;;;21.50;99.90;;;;;;5053897;28;20082;-80
2023/09/11 00:20:50;;;;;;;27.33;15.40;;;21.50;99.90;;;;;;5052797;28;20048;-79
2023/09/11 00:23:15;;;;;;;22.17;15.10;;;21.50;99.90;;;;;;5054014;28;20067;-80
2023/09/11 00:25:41;;;;;;;24.52;15.45;;;21.40;99.90;;;;;;5053488;28;20052;-80
2023/09/11 00:28:06;;;;;;;27.77;15.68;;;21.40;99.90;;;;;;5053949;28;20499;-80
2023/09/11 00:30:32;;;;;;;28.40;15.93;;;21.30;99.90;;;;;;5075272;28;20119;-80
2023/09/11 00:32:58;;;;;;;24.00;15.52;;;21.30;99.90;;;;;;5074985;28;20047;-80
2023/09/11 00:35:24;;;;;;;28.83;14.23;;;21.30;99.90;;;;;;5058114;28;20057;-80
2023/09/11 00:37:49;;;;;;;23.77;15.45;;;21.30;99.90;;;;;;5075586;28;20040;-79
2023/09/11 00:40:15;;;;;;;23.65;16.05;;;21.30;99.90;;;;;;5074861;28;20114;-80
2023/09/11 00:42:41;;;;;;;27.35;15.65;;;21.20;99.90;;;;;;5055851;28;20077;-79
2023/09/11 00:45:07;;;;;;;23.38;15.35;;;21.20;99.90;;;;;;5055506;28;20041;-79
2023/09/11 00:47:33;;;;;;;31.60;15.88;;;21.10;99.90;;;;;;5037261;28;20462;-79
2023/09/11 00:49:59;;;;;;;21.35;14.25;;;21.20;99.90;;;;;;5067697;28;20036;-79
2023/09/11 00:52:26;;;;;;;21.60;15.55;;;21.20;99.90;;;;;;5075702;28;20045;-80
2023/09/11 00:54:53;;;;;;;26.92;15.45;;;21.20;99.90;;;;;;5074754;28;20075;-79
2023/09/11 00:57:20;;;;;;;26.00;15.48;;;21.20;99.90;;;;;;5075701;28;20041;-80
2023/09/11 00:59:48;;;;;;;24.80;15.05;;;21.10;99.90;;;;;;5057256;28;20056;-79
2023/09/11 01:02:14;;;;;;;28.95;15.13;;;21.10;99.90;;;;;;5053130;28;20060;-80
2023/09/11 01:04:41;;;;;;;26.65;15.45;;;21.10;99.90;;;;;;5057171;28;20480;-80
2023/09/11 01:07:07;;;;;;;29.25;15.65;;;21.00;99.90;;;;;;5074944;28;20052;-80
2023/09/11 01:09:33;;;;;;;23.48;15.27;;;21.00;99.90;;;;;;5056648;28;20377;-79
2023/09/11 01:11:59;;;;;;;23.15;14.57;;;21.00;99.90;;;;;;5056838;28;20413;-78
2023/09/11 01:14:25;;;;;;;20.05;15.18;;;21.00;99.90;;;;;;5075121;28;20032;-79
2023/09/11 01:17:15;;;;;;;26.38;16.02;;;21.00;99.90;;;;;;5073562;28;20036;-79
2023/09/11 01:20:08;;;;;;;23.92;15.30;;;21.00;99.90;;;;;;5075119;28;20051;-79
2023/09/11 01:23:00;;;;;;;21.77;15.15;;;21.00;99.90;;;;;;5074217;28;20082;-79
2023/09/11 01:25:47;;;;;;;27.63;15.27;;;21.00;99.90;;;;;;5075261;28;20091;-80
2023/09/11 01:28:36;;;;;;;24.92;16.45;;;21.00;99.90;;;;;;5056722;28;20495;-80
2023/09/11 01:31:02;;;;;;;26.70;15.27;;;21.00;99.90;;;;;;5053671;28;20049;-79
2023/09/11 01:33:28;;;;;;;26.25;15.60;;;20.90;99.90;;;;;;5055029;28;20094;-80
2023/09/11 01:35:54;;;;;;;24.45;14.70;;;20.90;99.90;;;;;;5036020;28;20407;-79
2023/09/11 01:38:19;;;;;;;24.10;15.95;;;20.90;99.90;;;;;;5067031;28;20075;-79
2023/09/11 01:40:50;;;;;;;26.30;15.70;;;20.80;99.90;;;;;;5073903;28;20068;-79
2023/09/11 01:43:18;;;;;;;22.58;15.27;;;20.90;99.90;;;;;;5074119;28;20068;-79
2023/09/11 01:45:44;;;;;;;21.83;14.68;;;20.90;99.90;;;;;;5074674;28;20068;-79
2023/09/11 01:48:11;;;;;;;27.73;15.55;;;20.90;99.90;;;;;;5056278;28;20489;-79
2023/09/11 01:50:40;;;;;;;28.20;15.35;;;20.80;99.90;;;;;;5055804;28;20415;-79
2023/09/11 01:53:06;;;;;;;25.08;15.90;;;20.80;99.90;;;;;;5056201;28;20535;-79
2023/09/11 01:55:34;;;;;;;24.02;15.38;;;20.90;99.90;;;;;;5056589;28;20040;-79
2023/09/11 01:58:00;;;;;;;28.02;15.70;;;20.90;99.90;;;;;;5073502;28;20101;-79
2023/09/11 02:00:26;;;;;;;22.40;16.08;;;20.90;99.90;;;;;;5054810;28;20048;-79
2023/09/11 02:02:55;;;;;;;26.33;15.88;;;20.90;99.90;;;;;;5051770;28;20029;-79
2023/09/11 02:05:21;;;;;;;22.38;16.02;;;20.90;99.90;;;;;;5063534;28;20044;-79
2023/09/11 02:07:47;;;;;;;26.23;15.55;;;20.90;99.90;;;;;;5052596;28;20438;-80
2023/09/11 02:10:12;;;;;;;25.50;15.32;;;20.90;99.90;;;;;;5036211;28;20479;-79
2023/09/11 02:12:38;;;;;;;27.75;15.77;;;20.90;99.90;;;;;;5035541;28;20128;-79
2023/09/11 02:15:08;;;;;;;22.48;15.65;;;20.90;99.90;;;;;;5035959;28;20132;-79
2023/09/11 02:17:34;;;;;;;22.67;15.88;;;20.90;99.90;;;;;;5039654;28;20087;-80
2023/09/11 02:20:00;;;;;;;25.73;15.30;;;20.90;99.90;;;;;;5072209;28;20044;-80
2023/09/11 02:22:28;;;;;;;28.60;16.40;;;21.00;99.90;;;;;;5055944;28;20057;-80
2023/09/11 02:24:54;;;;;;;23.20;16.30;;;20.90;99.90;;;;;;5073655;28;20046;-79
2023/09/11 02:27:19;;;;;;;26.23;17.35;;;20.90;99.90;;;;;;5072880;28;20468;-80
2023/09/11 02:29:45;;;;;;;28.17;17.02;;;20.90;99.90;;;;;;5055918;28;20365;-80
2023/09/11 02:32:10;;;;;;;28.90;17.50;;;20.80;99.90;;;;;;5072818;28;20132;-80
2023/09/11 02:34:36;;;;;;;26.02;16.80;;;20.70;99.90;;;;;;5073516;28;20131;-79
2023/09/11 02:37:02;;;;;;;25.50;17.00;;;20.60;99.90;;;;;;5051399;28;20128;-80
2023/09/11 02:39:28;;;;;;;24.25;16.70;;;20.60;99.90;;;;;;5067821;28;20056;-79
2023/09/11 02:41:54;;;;;;;25.77;17.30;;;20.60;99.90;;;;;;5073224;28;20044;-80
2023/09/11 02:44:19;;;;;;;26.27;16.98;;;20.60;99.90;;;;;;5073543;28;20380;-80
2023/09/11 02:46:45;;;;;;;29.95;17.85;;;20.60;99.90;;;;;;5051200;28;20117;-80
2023/09/11 02:49:11;;;;;;;24.13;16.70;;;20.60;99.90;;;;;;5035496;28;20041;-80
2023/09/11 02:51:36;;;;;;;23.27;16.45;;;20.60;99.90;;;;;;5053204;28;20049;-80
2023/09/11 02:54:02;;;;;;;27.40;16.58;;;20.60;99.90;;;;;;5034393;28;20048;-80
2023/09/11 02:56:28;;;;;;;25.85;16.33;;;20.60;99.90;;;;;;5055784;28;20048;-80
2023/09/11 02:58:53;;;;;;;27.35;16.80;;;20.60;99.90;;;;;;5073116;28;20055;-79
2023/09/11 03:01:19;;;;;;;23.63;17.15;;;20.60;99.90;;;;;;5054469;28;20048;-79
2023/09/11 03:03:46;;;;;;;27.98;17.90;;;20.60;99.90;;;;;;5055294;28;20392;-79
2023/09/11 03:06:11;;;;;;;24.02;16.63;;;20.60;99.90;;;;;;5072579;28;20052;-80
2023/09/11 03:08:37;;;;;;;32.05;17.63;;;20.70;99.90;;;;;;5072019;28;20033;-80
2023/09/11 03:11:07;;;;;;;30.60;17.77;;;20.60;99.90;;;;;;5054500;28;20143;-79
2023/09/11 03:13:33;;;;;;;23.95;17.10;;;20.60;99.90;;;;;;5072378;28;20464;-79
2023/09/11 03:16:10;;;;;;;28.75;17.85;;;20.50;99.90;;;;;;5053519;28;20051;-79
2023/09/11 03:18:36;;;;;;;29.55;18.42;;;20.50;99.90;;;;;;5072698;28;20047;-79
2023/09/11 03:21:05;;;;;;;24.65;17.70;;;20.50;99.90;;;;;;5072357;28;20123;-79
2023/09/11 03:23:31;;;;;;;25.83;17.40;;;20.50;99.90;;;;;;5071983;28;20063;-79
2023/09/11 03:25:57;;;;;;;24.17;17.60;;;20.50;99.90;;;;;;5054066;28;20488;-79
2023/09/11 03:28:26;;;;;;;24.23;18.23;;;20.40;99.90;;;;;;5071860;28;20442;-79
2023/09/11 03:30:52;;;;;;;27.48;18.00;;;20.50;99.90;;;;;;5071829;28;20033;-79
2023/09/11 03:33:18;;;;;;;25.10;17.73;;;20.40;99.90;;;;;;5054865;28;20438;-79
2023/09/11 03:35:47;;;;;;;24.77;18.20;;;20.40;99.90;;;;;;5071949;28;20160;-79
2023/09/11 03:38:13;;;;;;;25.10;18.90;;;20.40;99.90;;;;;;5072064;28;20059;-79
2023/09/11 03:40:41;;;;;;;27.08;18.67;;;20.40;99.90;;;;;;5050583;28;20420;-79
2023/09/11 03:43:07;;;;;;;27.38;18.05;;;20.50;99.90;;;;;;5033312;28;20495;-79
2023/09/11 03:45:32;;;;;;;25.25;18.65;;;20.50;99.90;;;;;;5034687;28;20045;-80
2023/09/11 03:47:58;;;;;;;25.52;17.17;;;20.60;99.90;;;;;;5034701;28;20044;-80
2023/09/11 03:50:24;;;;;;;25.15;17.80;;;20.60;99.90;;;;;;5065994;28;20037;-80
2023/09/11 03:52:50;;;;;;;23.23;17.25;;;20.60;99.90;;;;;;5071909;28;20380;-80
2023/09/11 03:55:16;;;;;;;26.55;17.70;;;20.70;99.90;;;;;;5072455;28;20162;-80
2023/09/11 03:57:42;;;;;;;30.73;18.58;;;20.70;99.90;;;;;;5053973;28;20437;-79
2023/09/11 04:00:08;;;;;;;26.25;17.33;;;20.70;99.90;;;;;;5053324;28;20041;-80
2023/09/11 04:02:34;;;;;;;26.63;17.90;;;20.80;99.90;;;;;;5054841;28;20044;-79
2023/09/11 04:05:00;;;;;;;28.52;18.58;;;20.70;99.90;;;;;;5052790;28;20060;-79
2023/09/11 04:07:26;;;;;;;29.23;18.90;;;20.70;99.90;;;;;;5072490;28;20122;-80
2023/09/11 04:09:51;;;;;;;28.45;17.48;;;20.70;99.90;;;;;;5071304;28;20460;-79
2023/09/11 04:12:17;;;;;;;27.45;18.45;;;20.70;99.90;;;;;;5071180;28;20044;-80
2023/09/11 04:14:46;;;;;;;27.25;18.60;;;20.70;99.90;;;;;;5050461;28;20071;-78
2023/09/11 04:17:12;;;;;;;24.70;18.05;;;20.70;99.90;;;;;;5052247;28;20049;-78
2023/09/11 04:19:38;;;;;;;25.48;18.63;;;20.70;99.90;;;;;;5051273;28;20033;-78
2023/09/11 04:22:04;;;;;;;27.05;18.27;;;20.70;99.90;;;;;;5034364;28;20040;-78
2023/09/11 04:24:31;;;;;;;28.88;17.63;;;20.80;99.90;;;;;;5043604;28;20032;-78
2023/09/11 04:26:57;;;;;;;26.58;17.63;;;20.70;99.90;;;;;;5053359;28;20056;-78
2023/09/11 04:29:22;;;;;;;25.92;17.30;;;20.70;99.90;;;;;;5054137;28;20056;-78
2023/09/11 04:31:48;;;;;;;26.70;18.05;;;20.70;99.90;;;;;;5053093;28;20087;-78
2023/09/11 04:34:14;;;;;;;24.23;18.50;;;20.70;99.90;;;;;;5054148;28;20472;-79
2023/09/11 04:36:39;;;;;;;30.15;18.83;;;20.70;99.90;;;;;;5054513;28;20140;-79
2023/09/11 04:39:05;;;;;;;26.48;18.35;;;20.80;99.90;;;;;;5070121;28;20495;-78
2023/09/11 04:41:31;;;;;;;27.70;18.70;;;20.80;99.90;;;;;;5054398;28;20049;-78
2023/09/11 04:43:57;;;;;;;25.02;17.48;;;20.80;99.90;;;;;;5053150;28;20048;-78
2023/09/11 04:46:23;;;;;;;27.77;18.58;;;20.70;99.90;;;;;;5070566;28;20037;-78
2023/09/11 04:48:48;;;;;;;26.55;18.23;;;20.70;99.90;;;;;;5055462;28;20079;-77
2023/09/11 04:51:14;;;;;;;28.90;18.08;;;20.60;99.90;;;;;;5061430;28;20400;-77
2023/09/11 04:53:39;;;;;;;25.65;17.67;;;20.70;99.90;;;;;;5051298;28;20064;-79
2023/09/11 04:56:05;;;;;;;25.55;18.73;;;20.70;99.90;;;;;;5051403;28;20930;-80
2023/09/11 04:58:31;;;;;;;29.00;18.88;;;20.70;99.90;;;;;;5053521;28;20037;-80
2023/09/11 05:00:56;;;;;;;31.95;18.08;;;20.70;99.90;;;;;;5053226;28;20047;-80
2023/09/11 05:03:22;;;;;;;29.42;19.88;;;20.70;99.90;;;;;;5053812;28;20381;-80
2023/09/11 05:05:49;;;;;;;26.13;19.35;;;20.70;99.90;;;;;;5071394;28;20044;-80
2023/09/11 05:08:15;;;;;;;27.85;18.50;;;20.70;99.90;;;;;;5052445;28;20036;-81
2023/09/11 05:10:42;;;;;;;25.42;18.40;;;20.70;99.90;;;;;;5071131;28;20048;-78
2023/09/11 05:13:07;;;;;;;26.45;18.42;;;20.80;99.90;;;;;;5053251;28;20114;-77
2023/09/11 05:15:33;;;;;;;28.02;18.83;;;20.70;99.90;;;;;;5070253;28;20048;-83
2023/09/11 05:17:59;;;;;;;27.88;18.90;;;20.80;99.90;;;;;;5074937;28;20131;-82
2023/09/11 05:20:25;;;;;;;25.35;17.90;;;20.70;99.90;;;;;;5057194;28;20474;-81
2023/09/11 05:22:50;;;;;;;29.90;18.83;;;20.80;99.90;;;;;;5074360;28;20038;-81
2023/09/11 05:25:16;;;;;;;22.60;18.25;;;20.80;99.90;;;;;;5074725;28;20050;-83
2023/09/11 05:27:44;;;;;;;28.67;19.30;;;20.80;99.90;;;;;;5056554;28;20032;-82
2023/09/11 05:30:11;;;;;;;25.10;18.55;;;20.80;99.90;;;;;;5073649;28;20053;-81
2023/09/11 05:32:36;;;;;;;26.77;18.45;;;20.70;99.90;;;;;;5075006;28;20079;-81
2023/09/11 05:35:08;;;;;;;27.35;18.33;;;20.70;99.90;;;;;;5056478;28;20075;-80
2023/09/11 05:37:33;;;;;;;27.45;18.95;;;20.80;99.90;;;;;;5057319;28;20052;-82
2023/09/11 05:40:00;;;;;;;24.48;18.30;;;20.80;99.90;;;;;;5074640;28;20511;-79
2023/09/11 05:42:26;;;;;;;26.38;18.83;;;20.80;99.90;;;;;;5055660;28;20060;-80
2023/09/11 05:44:52;;;;;;;27.65;19.63;;;20.80;99.90;;;;;;5056609;28;20135;-86
2023/09/11 05:47:19;;;;;;;29.95;19.63;;;20.90;99.90;;;;;;5074515;28;20079;-79
2023/09/11 05:49:44;;;;;;;25.92;18.40;;;20.90;99.90;;;;;;5055484;28;20504;-78
2023/09/11 05:52:10;;;;;;;27.60;19.42;;;20.90;99.90;;;;;;5070644;28;20044;-78
2023/09/11 05:54:41;;;;;;;26.92;18.55;;;21.00;99.90;;;;;;5049981;28;20041;-78
2023/09/11 05:57:06;;;;;;;30.70;19.13;;;20.90;99.90;;;;;;5070826;28;20048;-79
2023/09/11 05:59:32;;;;;;;28.45;19.38;;;21.00;99.90;;;;;;5052672;28;20185;-79
2023/09/11 06:01:58;;;;;;;29.25;19.17;;;20.90;99.90;;;;;;5051763;28;20336;-80
2023/09/11 06:04:23;;;;;;;27.75;19.13;;;21.00;99.90;;;;;;5069380;28;20149;-80
2023/09/11 06:06:49;;;;;;;30.70;19.08;;;21.10;99.90;;;;;;5053325;28;20048;-80
2023/09/11 06:09:15;;;;;;;25.92;19.20;;;21.10;99.90;;;;;;5071675;28;20491;-80
2023/09/11 06:11:40;;;;;;;23.85;19.20;;;21.20;99.90;;;;;;5052943;28;20044;-80
2023/09/11 06:14:07;;;;;;;26.33;19.85;;;21.20;99.90;;;;;;5054599;28;20048;-80
2023/09/11 06:16:33;;;;;;;28.52;19.65;;;21.20;99.90;;;;;;5073750;28;20040;-80
2023/09/11 06:18:59;;;;;;;23.13;19.08;;;22.20;99.90;;;;;;5072501;28;20044;-79
2023/09/11 06:21:25;;;;;;;28.88;19.77;;;21.20;99.90;;;;;;5055452;28;20044;-80
2023/09/11 06:23:51;;;;;;;28.42;19.90;;;21.20;99.90;;;;;;5073339;28;20039;-80
2023/09/11 06:26:17;;;;;;;26.20;19.33;;;21.20;99.90;;;;;;5054665;28;20502;-79
2023/09/11 06:28:43;;;;;;;27.30;20.05;;;21.30;99.90;;;;;;5051728;28;20039;-79
2023/09/11 06:31:09;;;;;;;27.33;19.38;;;21.40;99.90;;;;;;5073009;28;20441;-79
2023/09/11 06:33:35;;;;;;;29.20;19.27;;;21.30;99.90;;;;;;5072269;28;20048;-78
2023/09/11 06:36:01;;;;;;;30.55;19.48;;;21.40;99.90;;;;;;5055045;28;20063;-78
2023/09/11 06:38:27;;;;;;;29.40;20.40;;;21.30;99.90;;;;;;5048061;28;20548;-78
2023/09/11 06:40:52;;;;;;;30.83;21.00;;;21.40;99.90;;;;;;5053114;28;20121;-78
2023/09/11 06:43:18;;;;;;;28.65;21.15;;;21.40;99.90;;;;;;5054051;28;20029;-78
2023/09/11 06:45:44;;;;;;;26.92;18.83;;;21.50;99.90;;;;;;5035043;28;20485;-78
2023/09/11 06:48:11;;;;;;;30.30;19.65;;;21.50;99.90;;;;;;5052940;28;20476;-78
2023/09/11 06:50:37;;;;;;;25.85;19.05;;;21.50;99.90;;;;;;5053712;28;20041;-78
2023/09/11 06:53:03;;;;;;;28.42;20.10;;;21.60;99.90;;;;;;5034419;28;20484;-78
2023/09/11 06:55:28;;;;;;;26.08;19.90;;;21.60;99.90;;;;;;5035742;28;20044;-78
2023/09/11 06:57:56;;;;;;;28.90;20.52;;;21.60;99.90;;;;;;5034911;28;20049;-78
2023/09/11 07:00:22;;;;;;;27.23;20.67;;;21.50;99.90;;;;;;5034677;28;20057;-78
2023/09/11 07:02:48;;;;;;;24.45;20.55;;;21.70;99.90;;;;;;5052972;28;20041;-78
2023/09/11 07:05:16;;;;;;;28.27;21.30;;;21.70;99.90;;;;;;5035256;28;20045;-78
2023/09/11 07:07:41;;;;;;;28.30;20.50;;;21.70;99.90;;;;;;5052573;28;20044;-78
2023/09/11 07:10:11;;;;;;;31.10;20.85;;;21.70;99.90;;;;;;5034935;28;20064;-78
2023/09/11 07:12:38;;;;;;;32.58;22.00;;;21.60;99.90;;;;;;5035489;28;20091;-79
2023/09/11 07:15:07;;;;;;;30.05;21.02;;;21.60;99.90;;;;;;5051684;28;20499;-80
2023/09/11 07:17:33;;;;;;;28.15;21.70;;;21.70;99.90;;;;;;5034804;28;20459;-79
2023/09/11 07:19:59;;;;;;;27.83;20.45;;;21.80;99.90;;;;;;5034897;28;20041;-76
2023/09/11 07:22:25;;;;;;;26.35;21.80;;;22.00;99.90;;;;;;5052610;28;20087;-77
2023/09/11 07:24:50;;;;;;;30.13;20.52;;;22.40;99.90;;;;;;5034707;28;20037;-78
2023/09/11 07:27:16;;;;;;;26.52;20.13;;;23.30;99.90;;;;;;5035130;28;20451;-77
2023/09/11 07:29:41;;;;;;;26.52;19.27;;;24.30;99.90;;;;;;5030889;28;20123;-78
2023/09/11 07:32:08;;;;;;;24.67;17.73;;;25.30;99.90;;;;;;5025802;28;20439;-78
2023/09/11 07:34:34;;;;;;;27.05;17.70;;;26.10;99.90;;;;;;5051200;28;20484;-80
2023/09/11 07:36:59;;;;;;;24.40;17.75;;;26.90;99.90;;;;;;5033794;28;20037;-79
2023/09/11 07:39:25;;;;;;;22.08;16.15;;;27.60;99.90;;;;;;5065428;28;20415;-76
2023/09/11 07:41:51;;;;;;;21.20;16.35;;;28.20;99.90;;;;;;5052832;28;20880;-76
2023/09/11 07:44:16;;;;;;;20.77;16.33;;;28.80;99.90;;;;;;5054209;28;20113;-75
2023/09/11 07:46:42;;;;;;;25.00;15.82;;;29.20;99.90;;;;;;5072225;28;20572;-74
2023/09/11 07:49:08;;;;;;;19.40;14.63;;;29.30;99.90;;;;;;5071113;28;20064;-75
2023/09/11 07:51:34;;;;;;;24.10;15.02;;;29.50;99.90;;;;;;5071843;28;20492;-76
2023/09/11 07:54:00;;;;;;;21.05;14.57;;;30.10;99.90;;;;;;5053734;28;20037;-75
2023/09/11 07:56:25;;;;;;;20.25;15.90;;;30.70;99.90;;;;;;5053284;28;20045;-77
2023/09/11 07:58:51;;;;;;;17.33;14.38;;;30.90;99.80;;;;;;5071529;28;20072;-77
2023/09/11 08:01:25;;;;;;;15.77;13.48;;;31.10;99.20;;;;;;5054205;28;20045;-76
2023/09/11 08:03:51;;;;;;;18.67;14.35;;;31.40;98.60;;;;;;5049974;28;20369;-75
2023/09/11 08:06:19;;;;;;;20.85;14.35;;;31.80;97.50;;;;;;5053745;28;20116;-76
2023/09/11 08:08:45;;;;;;;20.67;14.38;;;31.60;97.80;;;;;;5053884;28;20028;-77
2023/09/11 08:11:16;;;;;;;19.55;14.70;;;31.90;97.30;;;;;;5052835;28;20561;-77
2023/09/11 08:13:42;;;;;;;20.38;14.60;;;31.90;97.20;;;;;;5053673;28;20040;-79
2023/09/11 08:16:08;;;;;;;16.70;14.88;;;32.20;97.00;;;;;;5049246;28;20032;-78
2023/09/11 08:18:37;;;;;;;21.40;14.93;;;32.30;97.10;;;;;;5053133;28;20048;-79
2023/09/11 08:21:03;;;;;;;22.48;14.95;;;32.50;96.90;;;;;;5071933;28;20469;-78
2023/09/11 08:23:29;;;;;;;22.08;15.00;;;32.90;96.50;;;;;;5054233;28;20498;-78
2023/09/11 08:25:59;;;;;;;17.88;14.48;;;33.10;96.00;;;;;;5053353;28;20044;-78
2023/09/11 08:28:24;;;;;;;17.38;14.55;;;33.20;96.50;;;;;;5050531;28;20500;-78
2023/09/11 08:30:50;;;;;;;18.35;14.73;;;33.70;94.70;;;;;;5041028;28;20052;-78
2023/09/11 08:33:17;;;;;;;17.35;13.20;;;34.10;94.90;;;;;;5050383;28;20037;-78
2023/09/11 08:35:48;;;;;;;18.42;14.77;;;34.20;95.80;;;;;;5070708;28;20567;-76
2023/09/11 08:38:17;;;;;;;18.10;15.07;;;34.60;94.80;;;;;;5071895;28;20082;-77
2023/09/11 08:40:43;;;;;;;19.05;15.07;;;34.50;93.80;;;;;;5052854;28;20048;-76
2023/09/11 08:43:09;;;;;;;21.38;15.75;;;34.40;94.20;;;;;;5071665;28;20381;-77
2023/09/11 08:45:34;;;;;;;17.42;15.70;;;34.70;93.10;;;;;;5071453;28;20140;-77
2023/09/11 08:48:06;;;;;;;19.08;15.13;;;34.50;93.00;;;;;;5053776;28;20052;-76
2023/09/11 08:50:34;;;;;;;18.60;15.45;;;34.50;93.30;;;;;;5073813;28;20438;-76
2023/09/11 08:53:01;;;;;;;17.63;14.52;;;34.70;93.40;;;;;;5074216;28;20098;-76
2023/09/11 08:55:33;;;;;;;17.58;13.65;;;35.00;92.90;;;;;;5057801;28;20044;-77
2023/09/11 08:58:04;;;;;;;19.80;15.15;;;35.10;93.50;;;;;;5057382;28;20079;-77
2023/09/11 09:00:32;;;;;;;20.38;15.05;;;35.60;92.60;;;;;;5075152;28;20120;-77
2023/09/11 09:03:00;;;;;;;21.50;14.43;;;35.70;92.20;;;;;;5075546;28;20169;-77
2023/09/11 09:05:26;;;;;;;15.98;12.85;;;35.50;91.70;;;;;;5057457;28;20119;-77
2023/09/11 09:07:52;;;;;;;15.30;12.30;;;35.40;91.60;;;;;;5055821;28;20095;-77
2023/09/11 09:10:18;;;;;;;18.13;11.85;;;35.70;91.00;;;;;;5075470;28;20049;-77
2023/09/11 09:12:47;;;;;;;17.25;12.10;;;35.40;91.20;;;;;;5075651;28;20048;-76
2023/09/11 09:15:16;;;;;;;22.08;14.27;;;35.80;91.20;;;;;;5056742;28;20036;-77
2023/09/11 09:17:41;;;;;;;18.63;14.65;;;35.70;91.10;;;;;;5057324;28;20097;-77
2023/09/11 09:20:08;;;;;;;17.25;13.50;;;35.90;90.60;;;;;;5073960;28;20415;-77
2023/09/11 09:22:34;;;;;;;19.20;13.93;;;35.60;91.20;;;;;;5057468;28;20052;-77
2023/09/11 09:24:59;;;;;;;18.98;13.32;;;35.80;90.90;;;;;;5074737;28;20498;-77
2023/09/11 09:27:35;;;;;;;17.42;13.82;;;35.80;90.90;;;;;;5056794;28;20040;-77
2023/09/11 09:30:01;;;;;;;16.50;13.35;;;36.20;90.30;;;;;;5074724;28;20109;-77
2023/09/11 09:32:32;;;;;;;15.65;12.65;;;35.60;90.70;;;;;;5075010;28;20483;-77
2023/09/11 09:35:06;;;;;;;15.13;13.00;;;36.00;90.90;;;;;;5073271;28;20094;-77
2023/09/11 09:37:31;;;;;;;16.73;12.82;;;36.00;91.20;;;;;;5052967;28;20128;-77
2023/09/11 09:40:00;;;;;;;16.30;12.95;;;36.40;91.10;;;;;;5065172;28;20131;-76
2023/09/11 09:42:38;;;;;;;14.45;11.20;;;36.60;90.10;;;;;;5074045;28;20051;-76
2023/09/11 09:45:04;;;;;;;12.25;10.23;;;36.80;90.10;;;;;;5056372;28;20055;-78
2023/09/11 09:47:29;;;;;;;13.80;11.52;;;37.30;90.20;;;;;;5056941;28;20484;-76
2023/09/11 09:49:57;;;;;;;14.90;10.65;;;37.70;89.10;;;;;;5055341;28;20043;-76
2023/09/11 09:52:26;;;;;;;13.13;10.15;;;37.70;87.50;;;;;;5056330;28;20047;-75
2023/09/11 09:55:01;;;;;;;14.70;9.43;;;37.50;85.80;;;;;;5073151;28;20124;-77
2023/09/11 09:57:27;;;;;;;13.75;8.60;;;38.10;87.70;;;;;;5055515;28;20105;-78
2023/09/11 10:00:03;;;;;;;12.00;7.82;;;38.10;87.50;;;;;;5073412;28;20036;-78
2023/09/11 10:02:33;;;;;;;13.10;8.07;;;38.40;85.10;;;;;;5054507;28;20564;-78
2023/09/11 10:05:07;;;;;;;15.77;8.73;;;38.80;85.80;;;;;;5055660;28;20044;-78
2023/09/11 10:07:58;;;;;;;12.27;8.23;;;38.70;84.10;;;;;;5074779;28;20131;-75
2023/09/11 10:10:26;;;;;;;14.55;8.32;;;38.80;85.30;;;;;;5073048;28;20115;-80
2023/09/11 10:13:05;;;;;;;11.98;7.63;;;39.20;85.50;;;;;;5055405;28;20045;-80
2023/09/11 10:15:32;;;;;;;11.90;8.68;;;39.40;84.40;;;;;;5055786;28;20041;-79
2023/09/11 10:17:58;;;;;;;10.32;7.18;;;39.50;82.70;;;;;;5072530;28;20090;-80
2023/09/11 10:20:25;;;;;;;9.32;5.90;;;38.90;82.90;;;;;;5073522;28;20049;-79
2023/09/11 10:22:56;;;;;;;9.48;6.40;;;39.20;83.40;;;;;;5073010;28;20108;-78
2023/09/11 10:25:23;;;;;;;10.95;5.40;;;39.40;84.40;;;;;;5054634;28;20044;-79
2023/09/11 10:27:53;;;;;;;10.88;6.28;;;39.00;82.80;;;;;;5055415;28;20057;-78
2023/09/11 10:30:27;;;;;;;12.07;6.93;;;39.20;83.50;;;;;;5055846;28;20506;-79
2023/09/11 10:32:59;;;;;;;11.05;6.28;;;39.30;83.50;;;;;;5069279;28;20041;-79
2023/09/11 10:35:28;;;;;;;9.07;6.20;;;39.40;83.10;;;;;;5055233;28;20140;-79
2023/09/11 10:37:56;;;;;;;10.95;6.32;;;39.20;82.90;;;;;;5072009;28;20475;-79
2023/09/11 10:40:26;;;;;;;9.07;5.97;;;39.00;83.40;;;;;;5073287;28;20090;-76
2023/09/11 10:42:52;;;;;;;9.05;5.55;;;38.90;84.00;;;;;;5055062;28;20106;-77
2023/09/11 10:45:28;;;;;;;11.07;5.18;;;38.80;82.50;;;;;;5072326;28;20484;-78
2023/09/11 10:47:54;;;;;;;11.30;4.78;;;39.00;82.70;;;;;;5072567;28;20052;-79
2023/09/11 10:50:22;;;;;;;6.50;4.53;;;39.20;80.70;;;;;;5054851;28;20388;-79
2023/09/11 10:52:51;;;;;;;9.85;5.18;;;39.10;82.10;;;;;;5071994;28;20391;-79
2023/09/11 10:55:17;;;;;;;7.28;4.35;;;38.80;81.90;;;;;;5072761;28;20403;-78
2023/09/11 10:57:43;;;;;;;9.88;4.75;;;38.80;81.80;;;;;;5054974;28;20483;-80
2023/09/11 11:00:10;;;;;;;8.15;4.07;;;39.00;82.60;;;;;;5071437;28;20123;-78
2023/09/11 11:02:35;;;;;;;7.63;4.00;;;39.20;82.00;;;;;;5054953;28;20052;-78
2023/09/11 11:05:01;;;;;;;8.95;5.15;;;39.20;83.10;;;;;;5072660;28;20036;-79
2023/09/11 11:07:28;;;;;;;9.32;4.45;;;39.00;81.20;;;;;;5054077;28;20548;-78
2023/09/11 11:09:53;;;;;;;10.07;4.35;;;38.80;82.50;;;;;;5054527;28;20056;-79
2023/09/11 11:12:33;;;;;;;6.57;4.55;;;38.90;81.20;;;;;;5054415;28;20040;-79
2023/09/11 11:15:18;;;;;;;8.73;4.38;;;38.60;80.70;;;;;;5053992;28;20102;-78
2023/09/11 11:17:43;;;;;;;7.32;4.78;;;38.60;81.50;;;;;;5072719;28;20041;-79
2023/09/11 11:20:09;;;;;;;8.95;5.28;;;38.40;81.50;;;;;;5071418;28;20090;-79
2023/09/11 11:22:40;;;;;;;9.13;5.50;;;38.10;81.10;;;;;;5054723;28;20045;-80
2023/09/11 11:25:10;;;;;;;8.27;5.47;;;38.30;81.70;;;;;;5053969;28;20472;-78
2023/09/11 11:27:40;;;;;;;12.25;6.40;;;38.50;80.70;;;;;;5053465;28;20048;-79
2023/09/11 11:30:07;;;;;;;10.40;6.38;;;37.80;81.90;;;;;;5071942;28;20091;-79
2023/09/11 11:32:36;;;;;;;12.55;6.35;;;37.80;82.90;;;;;;5054013;28;20044;-79
2023/09/11 11:35:07;;;;;;;11.85;8.88;;;37.70;83.80;;;;;;5053335;28;20047;-78
2023/09/11 11:37:37;;;;;;;14.32;9.88;;;37.90;84.80;;;;;;5072390;28;20119;-80
2023/09/11 11:40:07;;;;;;;11.77;9.00;;;37.70;85.90;;;;;;5035311;28;20045;-80
2023/09/11 11:42:37;;;;;;;11.93;9.23;;;37.70;86.40;;;;;;5052955;28;20048;-79
2023/09/11 11:45:04;;;;;;;13.90;9.50;;;37.60;86.80;;;;;;5052979;28;20045;-80
2023/09/11 11:47:33;;;;;;;12.27;9.10;;;37.70;86.70;;;;;;5033740;28;20489;-80
2023/09/11 11:50:07;;;;;;;11.43;8.13;;;37.60;86.80;;;;;;5053471;28;20068;-76
2023/09/11 11:52:33;;;;;;;11.53;9.33;;;37.40;86.70;;;;;;5050353;28;20178;-76
2023/09/11 11:54:58;;;;;;;11.75;9.23;;;37.00;87.10;;;;;;5054743;28;20557;-78
2023/09/11 11:57:24;;;;;;;12.32;8.55;;;37.10;86.90;;;;;;5041497;28;20048;-79
2023/09/11 11:59:51;;;;;;;14.23;8.63;;;37.10;86.00;;;;;;5039448;28;20503;-78
2023/09/11 12:02:22;;;;;;;15.98;8.45;;;37.20;86.40;;;;;;5042306;28;20040;-83
2023/09/11 12:04:50;;;;;;;12.57;9.15;;;36.80;87.70;;;;;;5032003;28;20049;-81
2023/09/11 12:07:16;;;;;;;17.73;10.00;;;36.80;86.70;;;;;;5034023;28;20102;-82
2023/09/11 12:09:45;;;;;;;12.52;9.73;;;36.50;86.80;;;;;;5029775;28;20075;-86
2023/09/11 12:12:11;;;;;;;12.60;10.40;;;36.10;87.30;;;;;;5054905;28;20488;-81
2023/09/11 12:14:36;;;;;;;13.82;9.93;;;36.10;87.80;;;;;;5051982;28;20047;-83
2023/09/11 12:17:06;;;;;;;13.05;9.52;;;36.10;88.00;;;;;;5034078;28;20045;-82
2023/09/11 12:19:32;;;;;;;14.35;9.77;;;36.10;88.60;;;;;;5053031;28;20045;-87
2023/09/11 12:21:58;;;;;;;15.15;10.30;;;36.20;88.50;;;;;;5034926;28;20047;-84
2023/09/11 12:24:23;;;;;;;11.15;9.27;;;36.30;88.40;;;;;;5051701;28;20037;-86
2023/09/11 12:26:49;;;;;;;12.02;9.32;;;36.10;88.80;;;;;;5055905;28;20037;-83
2023/09/11 12:29:15;;;;;;;13.82;9.20;;;36.00;88.20;;;;;;5055788;28;20095;-82
2023/09/11 12:31:41;;;;;;;15.95;11.27;;;35.90;88.20;;;;;;5055798;28;20387;-81